| time (UTC) | temp F | wind direction | speed MPH | gust MPH | rain 1hr in | rain 24hr in | rain mn in | humidity % | barometer mb |
| 20260901104107 | 71 | 283 | 4.0 | 11.0 | 0.00 | 0.01 | 0.00 | 60 | 1026.3 |
| 20260901102554 | 71 | 260 | 5.0 | 11.0 | 0.00 | 0.01 | 0.00 | 62 | 1026.3 |
| 20260901101519 | 71 | 322 | 4.0 | 13.0 | 0.00 | 0.01 | 0.00 | 62 | 1026.3 |
| 20260901100054 | 71 | 338 | 6.0 | 9.0 | 0.00 | 0.01 | 0.00 | 63 | 1026.3 |
| 20260901095109 | 70 | 283 | 4.0 | 11.0 | 0.00 | 0.01 | 0.00 | 64 | 1026.1 |
| 20260901094055 | 70 | 248 | 2.0 | 4.0 | 0.00 | 0.01 | 0.00 | 64 | 1026.3 |
| 20260901093021 | 69 | 343 | 4.0 | 11.0 | 0.00 | 0.01 | 0.00 | 66 | 1026.3 |
| 20260901092108 | 69 | 266 | 4.0 | 11.0 | 0.00 | 0.01 | 0.00 | 66 | 1026.2 |
| 20260901090554 | 68 | 306 | 1.0 | 2.0 | 0.00 | 0.01 | 0.00 | 68 | 1026.1 |
| 20260901085543 | 67 | 289 | 3.0 | 11.0 | 0.00 | 0.01 | 0.00 | 69 | 1026.0 |
| 20260901084531 | 67 | 261 | 4.0 | 11.0 | 0.00 | 0.01 | 0.00 | 68 | 1026.1 |
| 20260901083519 | 68 | 296 | 3.0 | 11.0 | 0.00 | 0.01 | 0.00 | 67 | 1026.1 |
| 20260901082056 | 67 | 293 | 7.0 | 11.0 | 0.00 | 0.01 | 0.00 | 68 | 1026.1 |
| 20260901081020 | 67 | 313 | 4.0 | 11.0 | 0.00 | 0.01 | 0.00 | 70 | 1025.9 |
| 20260901080108 | 66 | 291 | 3.0 | 8.0 | 0.00 | 0.01 | 0.00 | 70 | 1025.8 |
| 20260901074520 | 66 | 287 | 4.0 | 13.0 | 0.00 | 0.01 | 0.00 | 71 | 1025.7 |
| 20260901073609 | 65 | 11 | 3.0 | 11.0 | 0.00 | 0.01 | 0.00 | 72 | 1025.7 |
| 20260901072556 | 65 | 293 | 5.0 | 11.0 | 0.00 | 0.01 | 0.00 | 72 | 1025.7 |
| 20260901071521 | 65 | 265 | 3.0 | 9.0 | 0.00 | 0.01 | 0.00 | 73 | 1025.7 |
| 20260901070055 | 64 | 270 | 4.0 | 13.0 | 0.00 | 0.01 | 0.00 | 74 | 1025.6 |
| 20260901065019 | 63 | 294 | 3.0 | 11.0 | 0.00 | 0.01 | 0.00 | 76 | 1025.4 |
| 20260901064107 | 63 | 267 | 3.0 | 8.0 | 0.00 | 0.01 | 0.00 | 77 | 1025.5 |
| 20260901062556 | 62 | 278 | 5.0 | 11.0 | 0.00 | 0.02 | 0.00 | 78 | 1025.4 |
| 20260901061520 | 62 | 308 | 4.0 | 8.0 | 0.00 | 0.02 | 0.00 | 78 | 1025.2 |
| 20260901060108 | 61 | 300 | 3.0 | 9.0 | 0.00 | 0.02 | 0.00 | 79 | 1025.2 |
| 20260901054519 | 60 | 282 | 2.0 | 8.0 | 0.00 | 0.05 | 0.00 | 81 | 1025.0 |
| 20260901053608 | 59 | 271 | 2.0 | 4.0 | 0.00 | 0.07 | 0.00 | 83 | 1024.9 |
| 20260901052555 | 59 | 293 | 2.0 | 4.0 | 0.00 | 0.07 | 0.00 | 83 | 1024.9 |
| 20260901051609 | 58 | 293 | 1.0 | 6.0 | 0.00 | 0.08 | 0.00 | 84 | 1024.8 |
| 20260901050108 | 58 | 309 | 2.0 | 6.0 | 0.00 | 0.08 | 0.00 | 84 | 1024.6 |
| 20260901044554 | 58 | 315 | 2.0 | 2.0 | 0.00 | 0.09 | 0.00 | 85 | 1024.6 |
| 20260901043521 | 57 | 0.0 | 2.0 | 0.00 | 0.09 | 0.00 | 87 | 1024.4 | |
| 20260901042108 | 58 | 315 | 1.0 | 4.0 | 0.00 | 0.11 | 0.00 | 85 | 1024.3 |
| 20260901040556 | 58 | 328 | 1.0 | 4.0 | 0.00 | 0.11 | 0.00 | 84 | 1024.0 |
| 20260901035609 | 58 | 286 | 2.0 | 11.0 | 0.00 | 0.11 | 0.00 | 84 | 1023.9 |
| 20260901034554 | 58 | 302 | 3.0 | 7.0 | 0.00 | 0.11 | 0.00 | 84 | 1023.8 |
| 20260901033600 | 59 | 293 | 3.0 | 7.0 | 0.00 | 0.11 | 0.00 | 83 | 1023.8 |
| 20260901032554 | 59 | 326 | 2.0 | 4.0 | 0.00 | 0.11 | 0.00 | 83 | 1023.7 |
| 20260901031519 | 59 | 313 | 3.0 | 8.0 | 0.00 | 0.11 | 0.00 | 83 | 1023.6 |
| 20260901030054 | 59 | 315 | 2.0 | 4.0 | 0.00 | 0.11 | 0.00 | 83 | 1023.6 |
| 20260901025042 | 59 | 288 | 3.0 | 7.0 | 0.00 | 0.11 | 0.00 | 82 | 1023.5 |
| 20260901024030 | 59 | 293 | 3.0 | 8.0 | 0.00 | 0.11 | 0.00 | 82 | 1023.4 |
| 20260901023019 | 59 | 289 | 3.0 | 8.0 | 0.00 | 0.11 | 0.00 | 82 | 1023.4 |
| 20260901022109 | 59 | 311 | 4.0 | 8.0 | 0.00 | 0.11 | 0.00 | 82 | 1023.4 |
| 20260901020555 | 59 | 270 | 5.0 | 11.0 | 0.00 | 0.11 | 0.00 | 82 | 1023.2 |
| 20260901015607 | 59 | 285 | 3.0 | 8.0 | 0.00 | 0.11 | 0.00 | 82 | 1023.3 |
| 20260901014555 | 59 | 315 | 2.0 | 4.0 | 0.00 | 0.11 | 0.00 | 82 | 1023.2 |
| 20260901013532 | 59 | 278 | 4.0 | 11.0 | 0.00 | 0.11 | 0.00 | 81 | 1023.2 |
| 20260901012518 | 60 | 299 | 3.0 | 8.0 | 0.00 | 0.11 | 0.00 | 81 | 1023.1 |
| 20260901011607 | 60 | 316 | 3.0 | 7.0 | 0.00 | 0.11 | 0.00 | 81 | 1023.2 |
| 20260901010554 | 60 | 293 | 4.0 | 7.0 | 0.00 | 0.11 | 0.00 | 80 | 1023.0 |
| 20260901005543 | 60 | 318 | 3.0 | 9.0 | 0.00 | 0.11 | 0.00 | 80 | 1023.2 |
| 20260901004533 | 60 | 304 | 3.0 | 8.0 | 0.00 | 0.11 | 0.00 | 79 | 1023.2 |
| 20260901003521 | 60 | 296 | 3.0 | 7.0 | 0.00 | 0.11 | 0.00 | 79 | 1022.9 |
| 20260901002031 | 60 | 295 | 3.0 | 7.0 | 0.00 | 0.11 | 0.00 | 81 | 1022.9 |
| 20260901001019 | 59 | 315 | 3.0 | 9.0 | 0.00 | 0.11 | 0.00 | 82 | 1023.0 |
| 20260901000108 | 59 | 315 | 4.0 | 9.0 | 0.00 | 0.11 | 0.00 | 82 | 1023.0 |
| 20260831235031 | 59 | 311 | 2.0 | 6.0 | 0.00 | 0.11 | 0.00 | 83 | 1022.8 |
| 20260831233543 | 59 | 245 | 2.0 | 7.0 | 0.00 | 0.11 | 0.00 | 83 | 1023.0 |
| 20260831232533 | 59 | 309 | 2.0 | 6.0 | 0.00 | 0.11 | 0.00 | 83 | 1023.1 |
| 20260831231518 | 59 | 296 | 2.0 | 4.0 | 0.00 | 0.11 | 0.00 | 82 | 1022.9 |
| 20260831230608 | 59 | 316 | 1.0 | 4.0 | 0.00 | 0.11 | 0.00 | 83 | 1022.8 |
| 20260831225612 | 59 | 305 | 1.0 | 4.0 | 0.00 | 0.11 | 0.00 | 82 | 1022.9 |
| 20260831224606 | 60 | 0.0 | 2.0 | 0.00 | 0.11 | 0.00 | 81 | 1022.8 | |
| 20260831223522 | 60 | 261 | 3.0 | 7.0 | 0.00 | 0.11 | 0.00 | 80 | 1022.6 |
| 20260831222106 | 60 | 315 | 4.0 | 6.0 | 0.00 | 0.11 | 0.00 | 80 | 1022.5 |
| 20260831221019 | 61 | 283 | 3.0 | 6.0 | 0.00 | 0.11 | 0.00 | 79 | 1022.4 |
| 20260831220109 | 61 | 293 | 5.0 | 14.0 | 0.00 | 0.11 | 0.00 | 79 | 1022.4 |
| 20260831215042 | 61 | 315 | 4.0 | 11.0 | 0.00 | 0.11 | 0.11 | 79 | 1022.4 |
| 20260831214031 | 61 | 314 | 4.0 | 8.0 | 0.00 | 0.11 | 0.11 | 79 | 1022.2 |
| 20260831213021 | 61 | 310 | 4.0 | 8.0 | 0.00 | 0.11 | 0.11 | 79 | 1022.2 |
| 20260831212109 | 61 | 315 | 3.0 | 9.0 | 0.00 | 0.11 | 0.11 | 79 | 1021.9 |
| 20260831211107 | 61 | 306 | 4.0 | 11.0 | 0.00 | 0.11 | 0.11 | 78 | 1022.1 |
| 20260831210055 | 62 | 293 | 4.0 | 13.0 | 0.00 | 0.11 | 0.11 | 78 | 1021.9 |
| 20260831205033 | 62 | 293 | 4.0 | 11.0 | 0.00 | 0.11 | 0.11 | 77 | 1021.9 |
| 20260831204021 | 62 | 287 | 3.0 | 9.0 | 0.00 | 0.11 | 0.11 | 78 | 1021.9 |
| 20260831203111 | 62 | 297 | 3.0 | 7.0 | 0.00 | 0.11 | 0.11 | 79 | 1021.8 |
| 20260831202106 | 62 | 293 | 2.0 | 4.0 | 0.00 | 0.11 | 0.11 | 79 | 1021.6 |
| 20260831201031 | 62 | 312 | 2.0 | 4.0 | 0.00 | 0.11 | 0.11 | 80 | 1021.4 |
| 20260831195608 | 62 | 331 | 2.0 | 8.0 | 0.00 | 0.11 | 0.11 | 80 | 1021.0 |
| 20260831194557 | 62 | 180 | 1.0 | 2.0 | 0.00 | 0.11 | 0.11 | 81 | 1020.6 |
| 20260831193526 | 63 | 277 | 3.0 | 8.0 | 0.00 | 0.11 | 0.11 | 77 | 1020.7 |
| 20260831192108 | 61 | 315 | 0.0 | 2.0 | 0.00 | 0.11 | 0.11 | 83 | 1020.5 |
| 20260831190554 | 62 | 298 | 1.0 | 4.0 | 0.00 | 0.11 | 0.11 | 81 | 1020.7 |
| 20260831185544 | 60 | 297 | 1.0 | 4.0 | 0.00 | 0.11 | 0.11 | 83 | 1020.6 |
| 20260831184532 | 60 | 273 | 1.0 | 2.0 | 0.01 | 0.11 | 0.11 | 84 | 1020.5 |
| 20260831183521 | 60 | 279 | 0.0 | 4.0 | 0.01 | 0.11 | 0.11 | 86 | 1020.4 |
| 20260831182108 | 60 | 293 | 0.0 | 2.0 | 0.01 | 0.11 | 0.11 | 85 | 1020.0 |
| 20260831180556 | 60 | 293 | 4.0 | 7.0 | 0.01 | 0.11 | 0.11 | 82 | 1020.2 |
| 20260831175608 | 62 | 298 | 2.0 | 6.0 | 0.01 | 0.11 | 0.11 | 79 | 1020.6 |
| 20260831174109 | 72 | 271 | 6.0 | 13.0 | 0.00 | 0.09 | 0.09 | 57 | 1019.7 |
| 20260831172554 | 73 | 52 | 5.0 | 13.0 | 0.00 | 0.09 | 0.09 | 54 | 1019.2 |
| 20260831171519 | 73 | 337 | 6.0 | 14.0 | 0.00 | 0.09 | 0.09 | 53 | 1019.2 |
| 20260831170056 | 73 | 270 | 3.0 | 7.0 | 0.00 | 0.09 | 0.09 | 54 | 1019.0 |
| 20260831165107 | 74 | 290 | 3.0 | 11.0 | 0.00 | 0.09 | 0.09 | 55 | 1018.8 |
| 20260831164054 | 74 | 338 | 3.0 | 7.0 | 0.00 | 0.09 | 0.09 | 55 | 1018.9 |
| 20260831163020 | 74 | 318 | 3.0 | 11.0 | 0.00 | 0.09 | 0.09 | 55 | 1018.8 |
| 20260831162108 | 74 | 265 | 3.0 | 8.0 | 0.00 | 0.09 | 0.09 | 55 | 1018.7 |
| 20260831160556 | 74 | 90 | 3.0 | 7.0 | 0.00 | 0.09 | 0.09 | 55 | 1018.8 |
| 20260831155607 | 75 | 293 | 3.0 | 9.0 | 0.00 | 0.09 | 0.09 | 55 | 1018.7 |
| 20260831154556 | 76 | 315 | 4.0 | 14.0 | 0.00 | 0.09 | 0.09 | 55 | 1018.8 |
| 20260831153520 | 75 | 256 | 3.0 | 11.0 | 0.00 | 0.09 | 0.09 | 55 | 1018.7 |
| 20260831152107 | 75 | 298 | 4.0 | 9.0 | 0.00 | 0.09 | 0.09 | 56 | 1018.9 |
| 20260831150556 | 75 | 304 | 2.0 | 4.0 | 0.00 | 0.09 | 0.09 | 57 | 1018.8 |
| 20260831145610 | 75 | 186 | 4.0 | 9.0 | 0.00 | 0.09 | 0.09 | 55 | 1018.8 |
| 20260831144554 | 75 | 324 | 6.0 | 13.0 | 0.00 | 0.09 | 0.09 | 54 | 1018.7 |
| 20260831143519 | 76 | 317 | 3.0 | 11.0 | 0.00 | 0.09 | 0.09 | 54 | 1018.9 |
| 20260831142054 | 76 | 293 | 3.0 | 7.0 | 0.00 | 0.09 | 0.09 | 52 | 1019.0 |
| 20260831141107 | 76 | 60 | 3.0 | 11.0 | 0.00 | 0.09 | 0.09 | 52 | 1019.0 |
| 20260831135609 | 75 | 223 | 5.0 | 13.0 | 0.00 | 0.09 | 0.09 | 51 | 1019.1 |
| 20260831134108 | 76 | 284 | 5.0 | 11.0 | 0.00 | 0.09 | 0.09 | 50 | 1019.1 |
| 20260831132555 | 76 | 305 | 6.0 | 13.0 | 0.00 | 0.09 | 0.09 | 51 | 1019.1 |
| 20260831131519 | 74 | 276 | 4.0 | 11.0 | 0.00 | 0.09 | 0.09 | 53 | 1019.1 |
| 20260831130109 | 74 | 233 | 3.0 | 8.0 | 0.00 | 0.09 | 0.09 | 55 | 1019.2 |
| 20260831124531 | 75 | 300 | 5.0 | 15.0 | 0.00 | 0.09 | 0.09 | 55 | 1019.4 |
| 20260831123521 | 77 | 305 | 4.0 | 11.0 | 0.00 | 0.09 | 0.09 | 55 | 1019.4 |
| 20260831122054 | 75 | 293 | 4.0 | 8.0 | 0.00 | 0.09 | 0.09 | 56 | 1019.4 |
| 20260831121107 | 74 | 311 | 4.0 | 13.0 | 0.00 | 0.09 | 0.09 | 57 | 1019.3 |
| 20260831120054 | 75 | 281 | 5.0 | 14.0 | 0.00 | 0.09 | 0.09 | 57 | 1019.4 |
| 20260831115043 | 74 | 350 | 5.0 | 13.0 | 0.00 | 0.09 | 0.09 | 58 | 1019.4 |
| 20260831114031 | 74 | 340 | 6.0 | 20.0 | 0.00 | 0.09 | 0.09 | 60 | 1019.5 |
| 20260831113019 | 72 | 352 | 5.0 | 11.0 | 0.00 | 0.09 | 0.09 | 61 | 1019.7 |
| 20260831112109 | 72 | 303 | 5.0 | 15.0 | 0.00 | 0.09 | 0.09 | 64 | 1019.8 |
| 20260831110555 | 72 | 225 | 4.0 | 8.0 | 0.00 | 0.09 | 0.09 | 66 | 1019.6 |
| 20260831105607 | 71 | 249 | 4.0 | 11.0 | 0.00 | 0.09 | 0.09 | 69 | 1019.6 |